createdAt,value
2023-01-03T00:00:14.731Z,11.41
2023-01-03T00:05:16.824Z,11.30
2023-01-03T00:10:19.007Z,11.39
2023-01-03T00:15:21.052Z,11.40
2023-01-03T00:20:23.216Z,11.27
2023-01-03T00:25:26.825Z,11.08
2023-01-03T00:30:29.212Z,11.15
2023-01-03T00:35:31.625Z,11.07
2023-01-03T00:40:33.818Z,11.18
2023-01-03T00:45:38.847Z,10.81
2023-01-03T00:50:40.861Z,10.71
2023-01-03T00:55:42.972Z,10.54
2023-01-03T01:00:44.942Z,10.48
2023-01-03T01:05:46.921Z,10.39
2023-01-03T01:11:02.067Z,10.34
2023-01-03T01:16:18.166Z,10.21
2023-01-03T01:21:28.148Z,10.19
2023-01-03T01:26:30.668Z,10.32
2023-01-03T01:31:33.369Z,10.81
2023-01-03T01:36:38.053Z,10.87
2023-01-03T01:42:00.462Z,10.88
2023-01-03T01:47:03.211Z,10.70
2023-01-03T01:52:06.353Z,10.26
2023-01-03T01:57:14.772Z,10.28
2023-01-03T02:02:24.231Z,11.07
2023-01-03T02:07:26.701Z,10.81
2023-01-03T02:13:13.529Z,10.03
2023-01-03T02:18:46.856Z,10.03
2023-01-03T02:24:12.175Z,10.11
2023-01-03T02:29:23.436Z,9.84
2023-01-03T02:34:49.806Z,9.97
2023-01-03T02:40:00.909Z,9.95
2023-01-03T02:45:15.820Z,9.83
2023-01-03T02:50:22.402Z,9.78
2023-01-03T02:55:29.820Z,9.66
2023-01-03T03:00:35.153Z,9.66
2023-01-03T03:05:45.807Z,9.53
2023-01-03T03:11:07.804Z,9.67
2023-01-03T03:16:41.077Z,9.70
2023-01-03T03:22:02.502Z,9.73
2023-01-03T03:27:28.826Z,10.01
2023-01-03T03:32:34.339Z,9.99
2023-01-03T03:37:40.644Z,9.91
2023-01-03T03:43:16.663Z,9.59
2023-01-03T03:49:05.549Z,9.77
2023-01-03T03:54:16.081Z,10.57
2023-01-03T03:59:24.552Z,9.86
2023-01-03T04:04:33.374Z,9.74
2023-01-03T04:09:36.026Z,9.82
2023-01-03T04:14:38.379Z,9.50
2023-01-03T04:19:40.786Z,9.23
2023-01-03T04:24:43.210Z,9.19
2023-01-03T04:29:45.791Z,9.18
2023-01-03T04:34:48.274Z,9.21
2023-01-03T04:39:50.693Z,9.11
2023-01-03T04:44:53.430Z,9.12
2023-01-03T04:49:55.860Z,9.37
2023-01-03T04:54:58.270Z,9.98
2023-01-03T05:00:00.984Z,10.64
2023-01-03T05:05:03.620Z,10.18
2023-01-03T05:10:06.517Z,10.43
2023-01-03T05:15:09.475Z,10.55
2023-01-03T05:20:30.609Z,10.36
2023-01-03T05:25:51.295Z,10.28
2023-01-03T05:30:53.820Z,10.31
2023-01-03T05:35:56.484Z,10.62
2023-01-03T05:40:59.206Z,11.17
2023-01-03T05:46:02.066Z,11.82
2023-01-03T05:51:05.043Z,11.41
2023-01-03T05:56:07.638Z,10.55
2023-01-03T06:01:11.779Z,10.45
2023-01-03T06:06:15.917Z,11.42
2023-01-03T06:11:18.500Z,11.81
2023-01-03T06:16:40.239Z,11.69
2023-01-03T06:21:42.324Z,11.71
2023-01-03T06:26:44.338Z,11.07
2023-01-03T06:31:46.864Z,10.12
2023-01-03T06:36:50.416Z,9.76
2023-01-03T06:41:52.820Z,9.06
2023-01-03T06:47:14.030Z,9.28
2023-01-03T06:52:35.977Z,9.57
2023-01-03T06:57:38.626Z,10.67
2023-01-03T07:02:41.181Z,10.38
2023-01-03T07:07:43.898Z,10.82
2023-01-03T07:13:06.583Z,9.63
2023-01-03T07:18:09.016Z,8.66
2023-01-03T07:23:13.320Z,8.53
2023-01-03T07:28:16.937Z,8.54
2023-01-03T07:33:19.790Z,9.48
2023-01-03T07:38:22.218Z,10.22
2023-01-03T07:43:37.155Z,9.15
2023-01-03T07:48:40.441Z,8.31
2023-01-03T07:53:43.848Z,8.29
2023-01-03T07:58:47.654Z,8.90
2023-01-03T08:03:50.463Z,9.16
2023-01-03T08:09:12.116Z,9.47
2023-01-03T08:14:14.537Z,9.50
2023-01-03T08:19:17.117Z,10.07
2023-01-03T08:24:19.513Z,10.36
2023-01-03T08:29:21.959Z,10.59
2023-01-03T08:34:30.110Z,10.25
2023-01-03T08:39:38.317Z,9.96
2023-01-03T08:44:41.675Z,10.51
2023-01-03T08:49:44.351Z,10.78
2023-01-03T08:54:47.209Z,10.65
2023-01-03T08:59:49.651Z,10.09
2023-01-03T09:04:52.047Z,10.22
2023-01-03T09:09:54.488Z,9.98
2023-01-03T09:14:56.993Z,9.69
2023-01-03T09:19:59.474Z,9.86
2023-01-03T09:25:02.263Z,10.64
2023-01-03T09:30:05.493Z,11.28
2023-01-03T09:35:08.809Z,11.36
2023-01-03T09:40:11.894Z,11.33
2023-01-03T09:45:19.251Z,11.67
2023-01-03T09:50:39.368Z,11.80
2023-01-03T09:56:18.370Z,11.82
2023-01-03T10:01:51.930Z,11.85
2023-01-03T10:07:03.339Z,11.95
2023-01-03T10:12:18.478Z,12.18
2023-01-03T10:17:34.316Z,12.29
2023-01-03T10:22:38.157Z,12.30
2023-01-03T10:28:06.777Z,12.27
2023-01-03T10:33:31.042Z,12.21
2023-01-03T10:38:38.417Z,12.22
2023-01-03T10:43:57.542Z,12.10
2023-01-03T10:49:27.787Z,11.99
2023-01-03T10:54:53.395Z,11.95
2023-01-03T10:59:55.436Z,11.99
2023-01-03T11:05:16.154Z,11.94
2023-01-03T11:10:19.636Z,11.90
2023-01-03T11:15:40.045Z,12.07
2023-01-03T11:21:17.836Z,13.85
2023-01-03T11:26:45.386Z,17.70
2023-01-03T11:32:10.927Z,20.43
2023-01-03T11:37:27.365Z,20.49
2023-01-03T11:42:55.113Z,22.88
2023-01-03T11:48:22.562Z,23.66
2023-01-03T11:53:44.078Z,24.95
2023-01-03T11:58:56.319Z,25.68
2023-01-03T12:04:20.417Z,24.59
2023-01-03T12:09:39.341Z,23.47
2023-01-03T12:15:12.297Z,24.33
2023-01-03T12:20:32.221Z,24.48
2023-01-03T12:25:42.438Z,24.89
2023-01-03T12:31:05.498Z,23.87
2023-01-03T12:36:45.262Z,24.66
2023-01-03T12:42:17.435Z,24.03
2023-01-03T12:47:30.796Z,23.03
2023-01-03T12:52:35.409Z,19.13
2023-01-03T12:57:49.715Z,17.16
2023-01-03T13:03:02.318Z,15.62
2023-01-03T13:08:12.154Z,14.39
2023-01-03T13:13:19.430Z,14.23
2023-01-03T13:18:21.474Z,13.87
2023-01-03T13:23:56.323Z,14.13
2023-01-03T13:29:35.334Z,14.23
2023-01-03T13:34:37.525Z,14.07
2023-01-03T13:39:47.974Z,13.96
2023-01-03T13:44:51.254Z,14.11
2023-01-03T13:49:54.204Z,14.13
2023-01-03T13:54:59.119Z,13.92
2023-01-03T14:00:14.072Z,13.96
2023-01-03T14:05:38.060Z,14.02
2023-01-03T14:11:16.583Z,13.84
2023-01-03T14:16:43.340Z,13.28
2023-01-03T14:22:30.374Z,13.07
2023-01-03T14:27:40.545Z,13.27
2023-01-03T14:32:43.083Z,13.28
2023-01-03T14:37:47.362Z,13.37
2023-01-03T14:42:49.772Z,13.54
2023-01-03T14:47:55.290Z,13.70
2023-01-03T14:53:01.649Z,13.31
2023-01-03T14:58:31.073Z,12.75
2023-01-03T15:03:43.636Z,12.58
2023-01-03T15:08:47.770Z,12.43
2023-01-03T15:13:55.708Z,12.42
2023-01-03T15:19:18.780Z,12.38
2023-01-03T15:24:23.850Z,12.15
2023-01-03T15:29:43.020Z,12.10
2023-01-03T15:34:45.840Z,11.76
2023-01-03T15:39:54.733Z,11.76
2023-01-03T15:44:57.789Z,11.81
2023-01-03T15:50:02.944Z,11.75
2023-01-03T15:55:05.842Z,11.62
2023-01-03T16:00:16.118Z,11.50
2023-01-03T16:05:22.418Z,11.36
2023-01-03T16:10:25.216Z,11.49
2023-01-03T16:15:28.529Z,11.57
2023-01-03T16:20:33.249Z,11.45
2023-01-03T16:25:35.809Z,11.19
2023-01-03T16:30:38.206Z,11.01
2023-01-03T16:35:40.619Z,10.90
2023-01-03T16:40:45.073Z,10.77
2023-01-03T16:45:48.194Z,10.65
2023-01-03T16:50:53.396Z,10.52
2023-01-03T16:55:56.366Z,10.30
2023-01-03T17:00:58.889Z,10.19
2023-01-03T17:06:01.902Z,10.12
2023-01-03T17:11:06.813Z,10.02
2023-01-03T17:16:15.536Z,10.00
2023-01-03T17:21:27.389Z,10.14
2023-01-03T17:26:33.118Z,9.78
2023-01-03T17:31:35.905Z,9.89
2023-01-03T17:36:38.691Z,9.91
2023-01-03T17:42:00.039Z,9.81
2023-01-03T17:47:34.470Z,9.69
2023-01-03T17:52:38.831Z,9.80
2023-01-03T17:57:41.370Z,9.70
2023-01-03T18:02:44.265Z,9.62
2023-01-03T18:07:47.096Z,9.74
2023-01-03T18:12:49.633Z,9.55
2023-01-03T18:17:52.654Z,9.51
2023-01-03T18:22:55.218Z,9.36
2023-01-03T18:28:01.684Z,9.35
2023-01-03T18:33:04.454Z,9.47
2023-01-03T18:38:06.943Z,9.49
2023-01-03T18:43:13.794Z,9.57
2023-01-03T18:48:19.019Z,9.53
2023-01-03T18:53:28.742Z,9.53
2023-01-03T18:58:37.686Z,9.33
2023-01-03T19:03:41.513Z,9.50
2023-01-03T19:08:44.678Z,9.82
2023-01-03T19:13:54.839Z,10.02
2023-01-03T19:18:57.993Z,10.20
2023-01-03T19:24:15.680Z,10.18
2023-01-03T19:29:37.406Z,10.00
2023-01-03T19:34:39.855Z,9.97
2023-01-03T19:39:42.635Z,9.74
2023-01-03T19:44:45.561Z,9.88
2023-01-03T19:49:49.030Z,10.15
2023-01-03T19:54:52.163Z,9.80
2023-01-03T19:59:58.453Z,9.42
2023-01-03T20:05:01.825Z,9.33
2023-01-03T20:10:04.894Z,9.48
2023-01-03T20:15:19.928Z,9.15
2023-01-03T20:20:25.422Z,9.27
2023-01-03T20:25:32.988Z,9.11
2023-01-03T20:30:36.033Z,8.88
2023-01-03T20:41:01.965Z,9.34
2023-01-03T20:46:05.067Z,8.66
2023-01-03T20:51:10.076Z,8.53
2023-01-03T20:56:13.802Z,8.54
2023-01-03T21:01:16.377Z,8.98
2023-01-03T21:06:25.437Z,9.34
2023-01-03T21:11:30.778Z,9.51
2023-01-03T21:16:39.147Z,9.52
2023-01-03T21:21:43.824Z,9.52
2023-01-03T21:26:46.747Z,9.38
2023-01-03T21:31:53.478Z,8.82
2023-01-03T21:36:56.131Z,8.93
2023-01-03T21:42:17.266Z,9.11
2023-01-03T21:47:19.643Z,8.98
2023-01-03T21:52:22.372Z,8.83
2023-01-03T21:57:25.091Z,8.85
2023-01-03T22:02:46.278Z,8.82
2023-01-03T22:07:48.900Z,8.76
2023-01-03T22:12:57.297Z,8.41
2023-01-03T22:17:59.718Z,8.34
2023-01-03T22:23:02.385Z,8.53
2023-01-03T22:28:05.188Z,8.70
2023-01-03T22:33:07.765Z,8.88
2023-01-03T22:38:10.182Z,8.79
2023-01-03T22:43:12.659Z,8.66
2023-01-03T22:48:15.270Z,8.18
2023-01-03T22:53:17.902Z,8.10
2023-01-03T22:58:20.705Z,7.88
2023-01-03T23:03:23.225Z,7.55
2023-01-03T23:08:25.597Z,6.98
2023-01-03T23:13:28.002Z,6.63
2023-01-03T23:18:33.752Z,6.32
2023-01-03T23:23:36.336Z,6.29
2023-01-03T23:28:38.726Z,6.32
2023-01-03T23:33:41.270Z,6.23
2023-01-03T23:38:43.737Z,6.25
2023-01-03T23:43:46.540Z,5.90
2023-01-03T23:48:53.677Z,5.87
2023-01-03T23:53:56.231Z,5.95
2023-01-03T23:58:58.752Z,5.94
